Time;durP1;ratioP1;P1;durP2;ratioP2;P2;SDS_P1;SDS_P2;PMS_P1;PMS_P2;Temp;Humidity;BMP_temperature;BMP_pressure;BME280_temperature;BME280_humidity;BME280_pressure;Samples;Min_cycle;Max_cycle;Signal;HPM_P1;HPM_P2
2023/01/09 00:02:13;;;;;;;4.25;2.30;;;;;;;;;;4869772;29;20052;-93
2023/01/09 00:04:40;;;;;;;6.53;3.03;;;;;;;;;;4869825;29;20136;-92
2023/01/09 00:07:06;;;;;;;7.50;2.05;;;;;;;;;;4869805;29;20049;-96
2023/01/09 00:09:32;;;;;;;5.90;2.15;;;;;;;;;;4854768;29;20051;-95
2023/01/09 00:11:58;;;;;;;2.08;1.75;;;;;;;;;;4854432;29;20544;-95
2023/01/09 00:14:24;;;;;;;6.78;2.13;;;;;;;;;;4869699;29;20059;-96
2023/01/09 00:16:50;;;;;;;5.50;2.10;;;;;;;;;;4854396;29;20052;-94
2023/01/09 00:19:16;;;;;;;1.88;1.77;;;;;;;;;;4870113;29;20096;-95
2023/01/09 00:21:42;;;;;;;2.45;2.25;;;;;;;;;;4854417;29;20057;-94
2023/01/09 00:24:09;;;;;;;5.28;1.83;;;;;;;;;;4869455;29;20056;-94
2023/01/09 00:26:35;;;;;;;3.25;1.55;;;;;;;;;;4869571;29;20560;-94
2023/01/09 00:29:01;;;;;;;2.55;1.40;;;;;;;;;;4869449;29;20059;-93
2023/01/09 00:31:27;;;;;;;4.47;1.75;;;;;;;;;;4884756;29;20418;-94
2023/01/09 00:34:02;;;;;;;3.15;1.10;;;;;;;;;;4869740;29;20571;-94
2023/01/09 00:36:28;;;;;;;1.30;1.20;;;;;;;;;;4869357;29;20063;-95
2023/01/09 00:38:54;;;;;;;1.38;1.27;;;;;;;;;;4869799;29;20056;-95
2023/01/09 00:41:23;;;;;;;2.55;1.50;;;;;;;;;;4869478;29;20490;-94
2023/01/09 00:43:52;;;;;;;2.50;1.05;;;;;;;;;;4869291;29;20056;-93
2023/01/09 00:46:20;;;;;;;2.03;1.17;;;;;;;;;;4868905;29;20175;-95
2023/01/09 00:48:47;;;;;;;1.25;1.05;;;;;;;;;;4869500;29;20056;-93
2023/01/09 00:51:13;;;;;;;1.38;0.90;;;;;;;;;;4853624;29;20088;-93
2023/01/09 00:53:40;;;;;;;1.17;1.08;;;;;;;;;;4868795;29;20056;-94
2023/01/09 00:56:08;;;;;;;6.72;1.45;;;;;;;;;;4869633;29;20151;-93
2023/01/09 00:58:34;;;;;;;2.00;1.10;;;;;;;;;;4868709;29;20052;-94
2023/01/09 01:01:01;;;;;;;0.90;0.85;;;;;;;;;;4868989;29;20067;-93
2023/01/09 01:03:27;;;;;;;1.58;1.05;;;;;;;;;;4867549;29;20084;-92
2023/01/09 01:08:38;;;;;;;4.07;1.30;;;;;;;;;;4883852;29;20088;-93
2023/01/09 01:11:07;;;;;;;1.77;1.02;;;;;;;;;;4868446;29;20510;-93
2023/01/09 01:13:33;;;;;;;2.05;1.05;;;;;;;;;;4868480;29;20052;-93
2023/01/09 01:15:59;;;;;;;2.28;1.10;;;;;;;;;;4868503;29;20513;-93
2023/01/09 01:18:25;;;;;;;4.35;1.10;;;;;;;;;;4868824;29;20079;-93
2023/01/09 01:20:52;;;;;;;3.85;1.17;;;;;;;;;;4852839;29;20506;-93
2023/01/09 01:23:18;;;;;;;1.25;1.10;;;;;;;;;;4868266;29;20053;-92
2023/01/09 01:25:44;;;;;;;2.45;1.00;;;;;;;;;;4868046;29;20498;-91
2023/01/09 01:28:10;;;;;;;1.70;1.10;;;;;;;;;;4868287;29;20084;-91
2023/01/09 01:30:40;;;;;;;2.33;1.10;;;;;;;;;;4853148;29;20060;-92
2023/01/09 01:33:06;;;;;;;3.03;1.20;;;;;;;;;;4867964;29;20533;-92
2023/01/09 01:35:32;;;;;;;3.60;2.20;;;;;;;;;;4867842;29;20052;-92
2023/01/09 01:37:58;;;;;;;1.77;1.25;;;;;;;;;;4867983;29;20052;-92
2023/01/09 01:40:24;;;;;;;2.72;1.63;;;;;;;;;;4867587;29;20068;-92
2023/01/09 01:42:51;;;;;;;2.90;1.52;;;;;;;;;;4852682;29;20041;-92
2023/01/09 01:45:19;;;;;;;2.55;2.35;;;;;;;;;;4867415;29;20063;-92
2023/01/09 01:47:52;;;;;;;2.90;1.75;;;;;;;;;;4867544;29;20520;-92
2023/01/09 01:50:24;;;;;;;2.58;2.00;;;;;;;;;;4867457;29;20049;-92
2023/01/09 01:52:53;;;;;;;1.50;1.40;;;;;;;;;;4867350;29;20053;-92
2023/01/09 01:55:19;;;;;;;3.03;1.85;;;;;;;;;;4867308;29;20057;-92
2023/01/09 01:57:47;;;;;;;4.57;2.05;;;;;;;;;;4867449;29;20049;-92
2023/01/09 02:00:14;;;;;;;4.30;2.00;;;;;;;;;;4883145;29;20093;-92
2023/01/09 02:02:42;;;;;;;6.07;1.92;;;;;;;;;;4867226;29;20061;-92
2023/01/09 02:05:08;;;;;;;4.68;2.20;;;;;;;;;;4852930;29;20055;-92
2023/01/09 02:07:34;;;;;;;2.33;1.80;;;;;;;;;;4867363;29;20088;-92
2023/01/09 02:10:01;;;;;;;3.50;2.03;;;;;;;;;;4851972;29;20104;-92
2023/01/09 02:12:27;;;;;;;4.38;2.78;;;;;;;;;;4867610;29;20056;-92
2023/01/09 02:14:58;;;;;;;2.05;1.60;;;;;;;;;;4867373;29;20143;-91
2023/01/09 02:17:33;;;;;;;11.25;2.47;;;;;;;;;;4866957;29;20056;-91
2023/01/09 02:20:13;;;;;;;7.10;2.17;;;;;;;;;;4867698;29;20410;-93
2023/01/09 02:22:57;;;;;;;2.45;2.17;;;;;;;;;;4867702;29;20068;-94
2023/01/09 02:25:39;;;;;;;7.00;2.17;;;;;;;;;;4867746;29;20056;-93
2023/01/09 02:28:17;;;;;;;4.10;2.20;;;;;;;;;;4867359;29;20057;-93
2023/01/09 02:30:46;;;;;;;4.35;2.20;;;;;;;;;;4867287;29;20070;-94
2023/01/09 02:33:35;;;;;;;2.78;1.92;;;;;;;;;;4867829;29;20062;-93
2023/01/09 02:36:10;;;;;;;2.33;2.10;;;;;;;;;;4859973;29;20045;-94
2023/01/09 02:38:39;;;;;;;4.53;1.80;;;;;;;;;;4867698;29;20056;-94
2023/01/09 02:41:12;;;;;;;10.60;2.85;;;;;;;;;;4867099;29;20046;-93
2023/01/09 02:43:40;;;;;;;9.57;2.53;;;;;;;;;;4867001;29;20057;-94
2023/01/09 02:46:12;;;;;;;5.65;2.13;;;;;;;;;;4867317;29;20060;-93
2023/01/09 02:48:38;;;;;;;3.92;2.38;;;;;;;;;;4866989;29;20131;-94
2023/01/09 02:51:04;;;;;;;3.22;2.50;;;;;;;;;;4866964;29;20063;-93
2023/01/09 02:53:46;;;;;;;3.15;2.10;;;;;;;;;;4866882;29;20049;-93
2023/01/09 02:56:19;;;;;;;6.05;2.30;;;;;;;;;;4867024;29;20134;-94
2023/01/09 02:58:49;;;;;;;5.20;1.95;;;;;;;;;;4866530;29;20429;-91
2023/01/09 03:01:31;;;;;;;10.68;2.92;;;;;;;;;;4866391;29;20052;-93
2023/01/09 03:04:12;;;;;;;4.45;2.40;;;;;;;;;;4866633;29;20059;-92
2023/01/09 03:06:45;;;;;;;5.90;1.92;;;;;;;;;;4881639;29;20168;-92
2023/01/09 03:09:21;;;;;;;5.05;2.33;;;;;;;;;;4866321;29;20108;-91
2023/01/09 03:11:49;;;;;;;2.17;1.98;;;;;;;;;;4866259;29;20056;-92
2023/01/09 03:14:16;;;;;;;6.75;2.70;;;;;;;;;;4866277;29;20040;-92
2023/01/09 03:16:45;;;;;;;7.22;2.00;;;;;;;;;;4866457;29;20071;-91
2023/01/09 03:19:15;;;;;;;4.63;2.15;;;;;;;;;;4866643;29;20189;-91
2023/01/09 03:21:41;;;;;;;4.18;1.90;;;;;;;;;;4866475;29;20079;-92
2023/01/09 03:24:07;;;;;;;6.30;2.53;;;;;;;;;;4866543;29;20063;-92
2023/01/09 03:26:34;;;;;;;2.65;2.25;;;;;;;;;;4867652;29;20059;-91
2023/01/09 03:29:00;;;;;;;7.05;2.47;;;;;;;;;;4869978;29;20139;-91
2023/01/09 03:31:26;;;;;;;4.18;2.22;;;;;;;;;;4870558;29;20409;-92
2023/01/09 03:33:52;;;;;;;6.57;2.33;;;;;;;;;;4869994;29;20085;-91
2023/01/09 03:36:19;;;;;;;8.90;2.65;;;;;;;;;;4854756;29;20059;-92
2023/01/09 03:38:45;;;;;;;3.22;2.17;;;;;;;;;;4870061;29;20470;-92
2023/01/09 03:41:12;;;;;;;9.18;2.65;;;;;;;;;;4854740;29;20052;-92
2023/01/09 03:43:38;;;;;;;6.47;2.67;;;;;;;;;;4869828;29;20140;-92
2023/01/09 03:46:04;;;;;;;5.50;2.88;;;;;;;;;;4869642;29;20049;-92
2023/01/09 03:48:30;;;;;;;5.63;2.35;;;;;;;;;;4869560;29;20057;-92
2023/01/09 03:50:57;;;;;;;4.07;2.67;;;;;;;;;;4869950;29;20053;-92
2023/01/09 03:53:24;;;;;;;5.95;2.47;;;;;;;;;;4869661;29;20088;-91
2023/01/09 03:55:51;;;;;;;8.93;3.28;;;;;;;;;;4885254;29;20529;-92
2023/01/09 03:58:17;;;;;;;4.85;2.42;;;;;;;;;;4869561;29;20048;-92
2023/01/09 04:00:45;;;;;;;3.90;2.20;;;;;;;;;;4869705;29;20108;-92
2023/01/09 04:03:11;;;;;;;8.00;2.60;;;;;;;;;;4869947;29;20061;-93
2023/01/09 04:05:37;;;;;;;3.03;2.55;;;;;;;;;;4869402;29;20151;-92
2023/01/09 04:08:04;;;;;;;4.63;2.60;;;;;;;;;;4869092;29;20053;-92
2023/01/09 04:10:30;;;;;;;6.22;2.45;;;;;;;;;;4853904;29;20072;-91
2023/01/09 04:12:56;;;;;;;5.65;3.03;;;;;;;;;;4869461;29;20063;-92
2023/01/09 04:15:22;;;;;;;5.28;3.20;;;;;;;;;;4869477;29;20056;-92
2023/01/09 04:17:49;;;;;;;10.20;3.53;;;;;;;;;;4869196;29;20554;-92
2023/01/09 04:20:15;;;;;;;6.78;3.15;;;;;;;;;;4885218;29;20056;-92
2023/01/09 04:22:41;;;;;;;9.30;3.72;;;;;;;;;;4869137;29;20110;-92
2023/01/09 04:25:07;;;;;;;5.47;2.78;;;;;;;;;;4853682;29;20481;-92
2023/01/09 04:27:33;;;;;;;6.65;2.92;;;;;;;;;;4853790;29;20514;-92
2023/01/09 04:29:59;;;;;;;9.70;3.42;;;;;;;;;;4869314;29;20057;-92
2023/01/09 04:32:26;;;;;;;6.93;2.97;;;;;;;;;;4868902;29;20048;-92
2023/01/09 04:34:53;;;;;;;5.43;3.03;;;;;;;;;;4868984;29;20049;-92
2023/01/09 04:37:19;;;;;;;8.52;3.15;;;;;;;;;;4868470;29;20056;-92
2023/01/09 04:39:45;;;;;;;8.95;2.85;;;;;;;;;;4869001;29;20391;-92
2023/01/09 04:42:11;;;;;;;6.63;2.80;;;;;;;;;;4869113;29;20049;-92
2023/01/09 04:44:38;;;;;;;7.28;3.00;;;;;;;;;;4868833;29;20053;-91
2023/01/09 04:47:04;;;;;;;22.25;4.10;;;;;;;;;;4853285;29;20466;-92
2023/01/09 04:49:30;;;;;;;11.98;4.63;;;;;;;;;;4868847;29;20057;-91
2023/01/09 04:51:56;;;;;;;9.57;4.32;;;;;;;;;;4868998;29;20056;-92
2023/01/09 04:54:22;;;;;;;8.27;3.35;;;;;;;;;;4869012;29;20442;-92
2023/01/09 04:56:48;;;;;;;3.55;3.22;;;;;;;;;;4868318;29;20055;-91
2023/01/09 04:59:15;;;;;;;10.02;5.07;;;;;;;;;;4853653;29;20116;-92
2023/01/09 05:01:41;;;;;;;7.05;3.83;;;;;;;;;;4868792;29;20052;-92
2023/01/09 05:04:07;;;;;;;9.48;4.70;;;;;;;;;;4868339;29;20051;-91
2023/01/09 05:06:33;;;;;;;8.55;4.30;;;;;;;;;;4868629;29;20092;-92
2023/01/09 05:08:59;;;;;;;12.45;3.85;;;;;;;;;;4868042;29;20052;-91
2023/01/09 05:11:26;;;;;;;7.22;4.32;;;;;;;;;;4883652;29;20053;-92
2023/01/09 05:13:52;;;;;;;6.28;4.20;;;;;;;;;;4868965;29;20108;-91
2023/01/09 05:16:19;;;;;;;8.88;4.40;;;;;;;;;;4867947;29;20115;-92
2023/01/09 05:18:45;;;;;;;6.68;3.85;;;;;;;;;;4868303;29;20518;-92
2023/01/09 05:21:11;;;;;;;7.80;4.45;;;;;;;;;;4867904;29;20060;-91
2023/01/09 05:23:37;;;;;;;5.55;4.22;;;;;;;;;;4868028;29;20049;-92
2023/01/09 05:26:03;;;;;;;6.93;4.47;;;;;;;;;;4867930;29;20532;-92
2023/01/09 05:28:30;;;;;;;7.47;3.90;;;;;;;;;;4867788;29;20055;-92
2023/01/09 05:30:56;;;;;;;11.32;5.63;;;;;;;;;;4867922;29;20143;-92
2023/01/09 05:33:23;;;;;;;13.98;5.70;;;;;;;;;;4867859;29;20148;-91
2023/01/09 05:35:49;;;;;;;8.90;5.60;;;;;;;;;;4867530;29;20049;-91
2023/01/09 05:38:15;;;;;;;14.50;5.10;;;;;;;;;;4853052;29;20088;-91
2023/01/09 05:40:41;;;;;;;10.25;5.47;;;;;;;;;;4852589;29;20053;-91
2023/01/09 05:43:07;;;;;;;13.13;6.47;;;;;;;;;;4867928;29;20522;-91
2023/01/09 05:45:33;;;;;;;10.70;6.70;;;;;;;;;;4867913;29;20060;-92
2023/01/09 05:47:59;;;;;;;14.35;7.50;;;;;;;;;;4852545;29;20174;-92
2023/01/09 05:50:25;;;;;;;9.05;6.65;;;;;;;;;;4867433;29;20048;-92
2023/01/09 06:20:14;;;;;;;15.50;10.88;;;5.90;99.90;;;;;;2356331;23;20448;-88
2023/01/09 06:22:40;;;;;;;17.73;11.25;;;;;;;;;;4862585;29;20068;-91
2023/01/09 06:25:07;;;;;;;16.13;10.52;;;;;;;;;;4864390;29;20049;-91
2023/01/09 06:27:33;;;;;;;17.98;11.70;;;;;;;;;;4864332;29;20085;-92
2023/01/09 06:29:59;;;;;;;16.98;12.02;;;;;;;;;;4864512;29;20061;-93
2023/01/09 06:32:25;;;;;;;17.48;11.40;;;;;;;;;;4864558;29;20061;-93
2023/01/09 06:34:51;;;;;;;15.98;11.25;;;;;;;;;;4864449;29;20114;-94
2023/01/09 06:37:17;;;;;;;16.63;11.75;;;;;;;;;;4864416;29;20045;-93
2023/01/09 06:39:43;;;;;;;16.17;10.65;;;;;;;;;;4864881;29;20089;-93
2023/01/09 06:42:09;;;;;;;15.50;10.98;;;;;;;;;;4864380;29;20406;-93
2023/01/09 06:44:35;;;;;;;15.85;10.73;;;;;;;;;;4864140;29;20057;-93
2023/01/09 06:47:04;;;;;;;17.75;11.93;;;;;;;;;;4863886;29;20084;-93
2023/01/09 06:49:30;;;;;;;29.77;12.80;;;;;;;;;;4863835;29;20056;-93
2023/01/09 06:51:57;;;;;;;17.20;10.90;;;;;;;;;;4863875;29;20057;-93
2023/01/09 06:54:23;;;;;;;19.92;11.82;;;;;;;;;;4864014;29;20507;-93
2023/01/09 06:56:49;;;;;;;17.70;11.25;;;;;;;;;;4848457;29;20060;-93
2023/01/09 06:59:15;;;;;;;18.48;11.73;;;;;;;;;;4863920;29;20053;-93
2023/01/09 07:01:41;;;;;;;18.42;11.05;;;;;;;;;;4864086;29;20049;-93
2023/01/09 07:04:09;;;;;;;23.00;11.15;;;;;;;;;;4864263;29;20143;-94
2023/01/09 07:06:36;;;;;;;20.05;11.10;;;;;;;;;;4863678;29;20096;-94
2023/01/09 07:09:03;;;;;;;15.80;10.52;;;;;;;;;;4863944;29;20068;-93
2023/01/09 07:11:29;;;;;;;18.88;11.52;;;;;;;;;;4863827;29;20060;-93
2023/01/09 07:13:55;;;;;;;18.30;10.23;;;;;;;;;;4863985;29;20145;-93
2023/01/09 07:16:21;;;;;;;14.77;8.88;;;;;;;;;;4863509;29;20533;-92
2023/01/09 07:18:47;;;;;;;12.00;8.43;;;;;;;;;;4863837;29;20060;-92
2023/01/09 07:21:13;;;;;;;17.35;10.00;;;;;;;;;;4847994;29;20060;-92
2023/01/09 07:23:39;;;;;;;18.38;10.27;;;;;;;;;;4863496;29;20057;-92
2023/01/09 07:26:05;;;;;;;14.60;8.82;;;;;;;;;;4848318;29;20521;-91
2023/01/09 07:28:31;;;;;;;15.45;9.30;;;;;;;;;;4863575;29;20052;-92
2023/01/09 07:31:01;;;;;;;17.75;9.25;;;;;;;;;;4863894;29;20061;-92
2023/01/09 07:33:27;;;;;;;21.38;10.45;;;;;;;;;;4863379;29;20057;-92
2023/01/09 07:35:53;;;;;;;17.17;11.13;;;;;;;;;;4878784;29;20052;-92
2023/01/09 07:38:19;;;;;;;17.95;9.25;;;;;;;;;;4863285;29;20200;-92
2023/01/09 07:40:45;;;;;;;17.98;9.57;;;;;;;;;;4863556;29;20060;-93
2023/01/09 07:43:11;;;;;;;16.92;9.10;;;;;;;;;;4847793;29;20060;-93
2023/01/09 07:45:37;;;;;;;14.73;9.32;;;;;;;;;;4862887;29;20045;-92
2023/01/09 07:48:04;;;;;;;15.23;9.88;;;;;;;;;;4863266;29;20057;-92
2023/01/09 07:50:30;;;;;;;10.48;8.20;;;;;;;;;;4863198;29;20060;-93
2023/01/09 07:52:56;;;;;;;18.73;8.40;;;;;;;;;;4863275;29;20084;-92
2023/01/09 07:55:22;;;;;;;17.70;8.10;;;;;;;;;;4863293;29;20044;-93
2023/01/09 07:57:52;;;;;;;16.15;9.25;;;;;;;;;;4848124;29;20060;-92
2023/01/09 08:00:19;;;;;;;15.98;8.27;;;;;;;;;;4863329;29;20072;-93
2023/01/09 08:02:46;;;;;;;18.40;8.27;;;;;;;;;;4863274;29;20096;-92
2023/01/09 08:05:14;;;;;;;10.52;7.68;;;;;;;;;;4863738;29;20056;-92
2023/01/09 08:07:40;;;;;;;16.42;8.82;;;;;;;;;;4863510;29;20067;-92
2023/01/09 08:10:07;;;;;;;12.13;8.10;;;;;;;;;;4862988;29;20046;-92
2023/01/09 08:12:33;;;;;;;12.55;8.30;;;;;;;;;;4864548;29;20064;-93
2023/01/09 08:15:00;;;;;;;20.00;8.63;;;;;;;;;;4851680;29;20049;-92
2023/01/09 08:17:26;;;;;;;11.50;8.00;;;;;;;;;;4866640;29;20057;-92
2023/01/09 08:19:52;;;;;;;19.73;9.18;;;;;;;;;;4866575;29;20151;-93
2023/01/09 08:22:18;;;;;;;17.45;8.88;;;;;;;;;;4866086;29;20049;-93
2023/01/09 08:24:44;;;;;;;11.88;7.72;;;;;;;;;;4866359;29;20061;-93
2023/01/09 08:27:10;;;;;;;12.35;7.45;;;;;;;;;;4850647;29;20057;-93
2023/01/09 08:29:36;;;;;;;11.35;7.80;;;;;;;;;;4866162;29;20055;-92
2023/01/09 08:32:02;;;;;;;16.17;8.18;;;;;;;;;;4866410;29;20061;-92
2023/01/09 08:34:29;;;;;;;15.35;9.10;;;;;;;;;;4865961;29;20140;-94
2023/01/09 08:36:55;;;;;;;12.32;7.32;;;;;;;;;;4866280;29;20585;-92
2023/01/09 08:39:21;;;;;;;12.32;7.35;;;;;;;;;;4865964;29;20052;-93
2023/01/09 08:47:18;;;;;;;10.88;7.15;;;;;;;;;;4865840;29;20085;-92
2023/01/09 08:49:45;;;;;;;10.70;6.93;;;;;;;;;;4866036;29;20061;-92
2023/01/09 08:52:12;;;;;;;12.75;6.93;;;;;;;;;;4866025;29;20113;-93
2023/01/09 08:54:38;;;;;;;10.02;6.85;;;;;;;;;;4865725;29;20060;-92
2023/01/09 08:57:05;;;;;;;17.08;7.40;;;;;;;;;;4865636;29;20049;-92
2023/01/09 08:59:32;;;;;;;11.52;6.43;;;;;;;;;;4865570;29;20578;-92
2023/01/09 09:01:59;;;;;;;13.07;6.25;;;;;;;;;;4850424;29;20141;-92
2023/01/09 09:04:25;;;;;;;10.35;6.22;;;;;;;;;;4865622;29;20053;-92
2023/01/09 09:06:51;;;;;;;11.35;6.07;;;;;;;;;;4850279;29;20068;-93
2023/01/09 19:13:50;;;;;;;13.52;5.05;;;6.20;99.90;;;;;;6015679;23;20857;31
2023/01/09 20:14:44;;;;;;;13.15;6.57;;;;;;;;;;4936337;23;20065;-90
2023/01/09 22:03:46;;;;;;;5.88;2.65;;;;;;;;;;5156851;23;20131;-94
2023/01/09 22:06:12;;;;;;;8.10;3.45;;;;;;;;;;4852568;29;20059;-95
2023/01/09 22:08:38;;;;;;;7.32;3.15;;;;;;;;;;4853124;29;20048;-94
2023/01/09 22:11:04;;;;;;;6.65;2.70;;;;;;;;;;4868011;29;20077;-94
2023/01/09 22:13:31;;;;;;;7.30;2.95;;;;;;;;;;4853174;29;20060;-94
2023/01/09 22:16:02;;;;;;;10.93;2.45;;;;;;;;;;4868300;29;20054;-94
2023/01/09 22:18:29;;;;;;;6.88;2.88;;;;;;;;;;4868032;29;20045;-95
2023/01/09 22:20:55;;;;;;;7.20;2.63;;;;;;;;;;4868171;29;20067;-95
2023/01/09 22:23:21;;;;;;;11.02;2.50;;;;;;;;;;4858742;29;20132;-96
2023/01/09 22:25:47;;;;;;;12.13;2.60;;;;;;;;;;4880068;29;20056;-96
2023/01/09 22:28:13;;;;;;;10.73;2.28;;;;;;;;;;4860057;29;20510;-91
2023/01/09 22:30:40;;;;;;;8.20;2.05;;;;;;;;;;4867176;29;20057;-92
2023/01/09 22:33:06;;;;;;;8.20;2.72;;;;;;;;;;4867362;29;20052;-92
2023/01/09 22:35:33;;;;;;;13.68;3.80;;;;;;;;;;4852062;29;20494;-93
2023/01/09 22:37:59;;;;;;;7.45;3.42;;;;;;;;;;4867419;29;20059;-93
2023/01/09 22:40:25;;;;;;;11.43;3.20;;;;;;;;;;4867674;29;20084;-92
2023/01/09 22:42:52;;;;;;;11.80;3.45;;;;;;;;;;4867264;29;20064;-92
2023/01/09 22:45:18;;;;;;;12.32;3.60;;;;;;;;;;4867357;29;20048;-96
2023/01/09 22:47:44;;;;;;;15.85;3.85;;;;;;;;;;4867281;29;20490;-96
2023/01/09 22:50:10;;;;;;;13.45;2.70;;;;;;;;;;4867632;29;20048;-94
2023/01/09 22:52:36;;;;;;;12.52;2.08;;;;;;;;;;4852298;29;20060;-93
2023/01/09 22:55:02;;;;;;;6.40;2.35;;;;;;;;;;4852186;29;20118;-95
2023/01/09 22:57:29;;;;;;;10.57;2.28;;;;;;;;;;4867253;29;20052;-94
2023/01/09 22:59:55;;;;;;;6.43;2.28;;;;;;;;;;4852155;29;20063;-93
2023/01/09 23:02:21;;;;;;;5.10;1.58;;;;;;;;;;4867979;29;20457;-95
2023/01/09 23:04:47;;;;;;;7.45;1.70;;;;;;;;;;4867180;29;20067;-96
2023/01/09 23:07:13;;;;;;;9.18;2.92;;;;;;;;;;4851816;29;20063;-95
2023/01/09 23:09:39;;;;;;;10.85;3.22;;;;;;;;;;4867386;29;20401;-96
2023/01/09 23:12:06;;;;;;;14.93;3.80;;;;;;;;;;4867123;29;20063;-95
2023/01/09 23:14:34;;;;;;;9.88;3.30;;;;;;;;;;4867326;29;20048;-95
2023/01/09 23:17:01;;;;;;;18.88;4.15;;;;;;;;;;4867267;29;20053;-95
2023/01/09 23:19:29;;;;;;;13.23;3.50;;;;;;;;;;4867749;29;20108;-94
2023/01/09 23:21:56;;;;;;;11.60;3.45;;;;;;;;;;4867436;29;20102;-96
2023/01/09 23:24:22;;;;;;;8.60;2.97;;;;;;;;;;4866799;29;20045;-93
2023/01/09 23:26:48;;;;;;;13.60;3.30;;;;;;;;;;4867008;29;20057;-93
2023/01/09 23:29:14;;;;;;;8.70;3.50;;;;;;;;;;4882901;29;20132;-94
2023/01/09 23:31:40;;;;;;;11.02;2.92;;;;;;;;;;4866703;29;20053;-94
2023/01/09 23:34:07;;;;;;;10.30;3.22;;;;;;;;;;4866513;29;20398;-91
2023/01/09 23:36:33;;;;;;;14.10;3.55;;;;;;;;;;4850859;29;20048;-91
2023/01/09 23:39:01;;;;;;;11.13;2.88;;;;;;;;;;4865976;29;20060;-91
2023/01/09 23:43:07;;;;;;;8.50;3.25;;;;;;;;;;4851102;29;20064;-90
2023/01/09 23:44:13;;;;;;;12.82;5.13;;;;;;;;;;4871033;29;20143;-90
2023/01/09 23:46:39;;;;;;;32.10;5.45;;;;;;;;;;4854420;29;20056;-90
2023/01/09 23:49:05;;;;;;;16.15;4.32;;;;;;;;;;4854666;29;20063;-91
2023/01/09 23:51:31;;;;;;;23.50;3.58;;;;;;;;;;4869964;29;20506;-91
2023/01/09 23:53:57;;;;;;;15.55;3.92;;;;;;;;;;4869600;29;20088;-90
2023/01/09 23:56:23;;;;;;;7.13;3.08;;;;;;;;;;4854367;29;20498;-90
2023/01/09 23:58:50;;;;;;;19.35;3.40;;;;;;;;;;4854566;29;20044;-90
